KMCC/MCC METAR and TAF weather

Enter ICAO airport designator
Station Type Date Time Source
KMCC METAR 2024/04/15 08:55 UTC NOAA

KMCC 150855Z AUTO 00000KT 10SM BKN050 BKN090 11/10 A3013 RMK AO2


Station Type Date Time Source
KMCC Decoded METAR 2024/04/15 08:55 UTC NOAA

Sacramento, McClellan Airfield Airport, CA, United States (KMCC) 38-40N 121-24W
Apr 15, 2024 - 04:55 AM EDT / 2024.04.15 0855 UTC
Wind: Calm:0
Visibility: 10 mile(s):0
Sky conditions: mostly cloudy
Temperature: 51 F (11 C)
Dew Point: 50 F (10 C)
Relative Humidity: 93%
Pressure (altimeter): 30.13 in. Hg (1020 hPa)
ob: KMCC 150855Z AUTO 00000KT 10SM BKN050 BKN090 11/10 A3013 RMK AO2
cycle: 9

Station Type Date Time Source
KMCC TAF 2024/04/15 02:27 UTC NOAA